sensor_id;sensor_type;location;lat;lon;timestamp;P1;durP1;ratioP1;P2;durP2;ratioP2
4837;SDS011;2433;48.768;9.154;2022-07-23T00:00:13;3.60;;;3.30;;
4837;SDS011;2433;48.768;9.154;2022-07-23T00:02:40;4.23;;;3.30;;
4837;SDS011;2433;48.768;9.154;2022-07-23T00:05:05;3.10;;;2.80;;
4837;SDS011;2433;48.768;9.154;2022-07-23T00:07:31;6.23;;;3.30;;
4837;SDS011;2433;48.768;9.154;2022-07-23T00:09:57;4.10;;;3.70;;
4837;SDS011;2433;48.768;9.154;2022-07-23T00:12:22;5.00;;;3.53;;
4837;SDS011;2433;48.768;9.154;2022-07-23T00:14:48;4.03;;;3.17;;
4837;SDS011;2433;48.768;9.154;2022-07-23T00:17:14;4.20;;;3.67;;
4837;SDS011;2433;48.768;9.154;2022-07-23T00:19:39;4.33;;;3.60;;
4837;SDS011;2433;48.768;9.154;2022-07-23T00:22:05;3.80;;;2.93;;
4837;SDS011;2433;48.768;9.154;2022-07-23T00:24:31;4.07;;;3.03;;
4837;SDS011;2433;48.768;9.154;2022-07-23T00:26:56;3.47;;;3.17;;
4837;SDS011;2433;48.768;9.154;2022-07-23T00:29:22;4.60;;;3.42;;
4837;SDS011;2433;48.768;9.154;2022-07-23T00:31:47;3.53;;;3.20;;
4837;SDS011;2433;48.768;9.154;2022-07-23T00:34:13;3.73;;;3.10;;
4837;SDS011;2433;48.768;9.154;2022-07-23T00:36:39;3.50;;;2.60;;
4837;SDS011;2433;48.768;9.154;2022-07-23T00:39:04;3.90;;;3.20;;
4837;SDS011;2433;48.768;9.154;2022-07-23T00:41:30;3.67;;;3.23;;
4837;SDS011;2433;48.768;9.154;2022-07-23T00:44:02;3.53;;;3.23;;
4837;SDS011;2433;48.768;9.154;2022-07-23T00:46:46;3.80;;;3.40;;
4837;SDS011;2433;48.768;9.154;2022-07-23T00:49:14;4.17;;;3.00;;
4837;SDS011;2433;48.768;9.154;2022-07-23T00:51:40;3.97;;;2.87;;
4837;SDS011;2433;48.768;9.154;2022-07-23T00:54:05;4.63;;;2.70;;
4837;SDS011;2433;48.768;9.154;2022-07-23T00:56:31;3.47;;;3.17;;
4837;SDS011;2433;48.768;9.154;2022-07-23T00:58:57;3.40;;;3.10;;
4837;SDS011;2433;48.768;9.154;2022-07-23T01:01:25;4.82;;;3.40;;
4837;SDS011;2433;48.768;9.154;2022-07-23T01:03:50;5.27;;;3.70;;
4837;SDS011;2433;48.768;9.154;2022-07-23T01:06:16;4.03;;;2.50;;
4837;SDS011;2433;48.768;9.154;2022-07-23T01:08:42;3.30;;;3.00;;
4837;SDS011;2433;48.768;9.154;2022-07-23T01:11:11;4.17;;;3.17;;
4837;SDS011;2433;48.768;9.154;2022-07-23T01:13:40;3.50;;;3.00;;
4837;SDS011;2433;48.768;9.154;2022-07-23T01:16:07;4.60;;;3.53;;
4837;SDS011;2433;48.768;9.154;2022-07-23T01:18:34;3.35;;;3.05;;
4837;SDS011;2433;48.768;9.154;2022-07-23T01:20:59;2.67;;;2.47;;
4837;SDS011;2433;48.768;9.154;2022-07-23T01:23:25;6.83;;;3.30;;
4837;SDS011;2433;48.768;9.154;2022-07-23T01:25:54;3.28;;;2.20;;
4837;SDS011;2433;48.768;9.154;2022-07-23T01:28:22;3.10;;;2.83;;
4837;SDS011;2433;48.768;9.154;2022-07-23T01:30:48;3.92;;;3.15;;
4837;SDS011;2433;48.768;9.154;2022-07-23T01:33:14;4.80;;;3.73;;
4837;SDS011;2433;48.768;9.154;2022-07-23T01:35:40;4.43;;;3.03;;
4837;SDS011;2433;48.768;9.154;2022-07-23T01:38:06;13.65;;;3.83;;
4837;SDS011;2433;48.768;9.154;2022-07-23T01:40:33;8.03;;;5.40;;
4837;SDS011;2433;48.768;9.154;2022-07-23T01:42:58;11.83;;;4.50;;
4837;SDS011;2433;48.768;9.154;2022-07-23T01:45:24;5.00;;;3.33;;
4837;SDS011;2433;48.768;9.154;2022-07-23T01:47:51;5.00;;;3.00;;
4837;SDS011;2433;48.768;9.154;2022-07-23T01:50:16;6.20;;;3.77;;
4837;SDS011;2433;48.768;9.154;2022-07-23T01:53:02;4.97;;;3.77;;
4837;SDS011;2433;48.768;9.154;2022-07-23T01:55:28;3.43;;;3.13;;
4837;SDS011;2433;48.768;9.154;2022-07-23T01:57:53;3.80;;;3.40;;
4837;SDS011;2433;48.768;9.154;2022-07-23T02:00:25;2.90;;;2.63;;
4837;SDS011;2433;48.768;9.154;2022-07-23T02:02:51;5.00;;;4.00;;
4837;SDS011;2433;48.768;9.154;2022-07-23T02:05:17;3.70;;;3.17;;
4837;SDS011;2433;48.768;9.154;2022-07-23T02:07:44;3.60;;;3.30;;
4837;SDS011;2433;48.768;9.154;2022-07-23T02:10:09;3.57;;;3.30;;
4837;SDS011;2433;48.768;9.154;2022-07-23T02:12:36;3.80;;;3.50;;
4837;SDS011;2433;48.768;9.154;2022-07-23T02:15:02;4.33;;;3.50;;
4837;SDS011;2433;48.768;9.154;2022-07-23T02:17:28;4.20;;;3.57;;
4837;SDS011;2433;48.768;9.154;2022-07-23T02:19:53;4.40;;;3.40;;
4837;SDS011;2433;48.768;9.154;2022-07-23T02:22:21;5.40;;;4.00;;
4837;SDS011;2433;48.768;9.154;2022-07-23T02:24:50;3.60;;;3.30;;
4837;SDS011;2433;48.768;9.154;2022-07-23T02:27:15;5.03;;;3.57;;
4837;SDS011;2433;48.768;9.154;2022-07-23T02:29:42;4.25;;;3.67;;
4837;SDS011;2433;48.768;9.154;2022-07-23T02:32:07;4.27;;;3.87;;
4837;SDS011;2433;48.768;9.154;2022-07-23T02:34:33;3.70;;;3.40;;
4837;SDS011;2433;48.768;9.154;2022-07-23T02:36:59;4.57;;;4.07;;
4837;SDS011;2433;48.768;9.154;2022-07-23T02:39:28;3.77;;;3.47;;
4837;SDS011;2433;48.768;9.154;2022-07-23T02:41:54;4.20;;;3.80;;
4837;SDS011;2433;48.768;9.154;2022-07-23T02:44:20;3.90;;;3.30;;
4837;SDS011;2433;48.768;9.154;2022-07-23T02:46:49;5.00;;;3.70;;
4837;SDS011;2433;48.768;9.154;2022-07-23T02:49:16;4.03;;;3.63;;
4837;SDS011;2433;48.768;9.154;2022-07-23T02:51:43;4.85;;;3.70;;
4837;SDS011;2433;48.768;9.154;2022-07-23T02:54:10;4.20;;;3.80;;
4837;SDS011;2433;48.768;9.154;2022-07-23T02:56:36;4.70;;;3.70;;
4837;SDS011;2433;48.768;9.154;2022-07-23T02:59:01;4.10;;;3.70;;
4837;SDS011;2433;48.768;9.154;2022-07-23T03:01:27;4.83;;;3.60;;
4837;SDS011;2433;48.768;9.154;2022-07-23T03:03:52;3.70;;;3.40;;
4837;SDS011;2433;48.768;9.154;2022-07-23T03:06:20;4.60;;;3.60;;
4837;SDS011;2433;48.768;9.154;2022-07-23T03:08:46;3.47;;;3.17;;
4837;SDS011;2433;48.768;9.154;2022-07-23T03:11:12;3.37;;;3.03;;
4837;SDS011;2433;48.768;9.154;2022-07-23T03:13:39;4.20;;;3.47;;
4837;SDS011;2433;48.768;9.154;2022-07-23T03:16:05;4.82;;;4.13;;
4837;SDS011;2433;48.768;9.154;2022-07-23T03:18:34;3.77;;;3.00;;
4837;SDS011;2433;48.768;9.154;2022-07-23T03:21:00;3.53;;;3.20;;
4837;SDS011;2433;48.768;9.154;2022-07-23T03:23:26;3.50;;;3.17;;
4837;SDS011;2433;48.768;9.154;2022-07-23T03:25:51;3.63;;;3.17;;
4837;SDS011;2433;48.768;9.154;2022-07-23T03:28:17;4.30;;;3.90;;
4837;SDS011;2433;48.768;9.154;2022-07-23T03:30:45;3.70;;;3.40;;
4837;SDS011;2433;48.768;9.154;2022-07-23T03:33:15;4.80;;;3.50;;
4837;SDS011;2433;48.768;9.154;2022-07-23T03:35:42;4.73;;;3.67;;
4837;SDS011;2433;48.768;9.154;2022-07-23T03:38:19;4.73;;;2.70;;
4837;SDS011;2433;48.768;9.154;2022-07-23T03:40:45;5.07;;;3.23;;
4837;SDS011;2433;48.768;9.154;2022-07-23T03:43:10;4.03;;;3.23;;
4837;SDS011;2433;48.768;9.154;2022-07-23T03:45:36;4.33;;;3.90;;
4837;SDS011;2433;48.768;9.154;2022-07-23T03:48:01;3.57;;;3.27;;
4837;SDS011;2433;48.768;9.154;2022-07-23T03:50:28;3.70;;;3.37;;
4837;SDS011;2433;48.768;9.154;2022-07-23T03:52:53;3.23;;;2.97;;
4837;SDS011;2433;48.768;9.154;2022-07-23T03:55:19;4.47;;;3.87;;
4837;SDS011;2433;48.768;9.154;2022-07-23T03:57:45;5.60;;;3.27;;
4837;SDS011;2433;48.768;9.154;2022-07-23T04:00:11;4.10;;;3.37;;
4837;SDS011;2433;48.768;9.154;2022-07-23T04:02:42;4.70;;;4.15;;
4837;SDS011;2433;48.768;9.154;2022-07-23T04:05:09;4.60;;;4.20;;
4837;SDS011;2433;48.768;9.154;2022-07-23T04:07:35;4.40;;;4.00;;
4837;SDS011;2433;48.768;9.154;2022-07-23T04:10:01;3.93;;;3.53;;
4837;SDS011;2433;48.768;9.154;2022-07-23T04:12:28;4.30;;;3.50;;
4837;SDS011;2433;48.768;9.154;2022-07-23T04:14:53;4.17;;;3.77;;
4837;SDS011;2433;48.768;9.154;2022-07-23T04:17:19;4.27;;;3.60;;
4837;SDS011;2433;48.768;9.154;2022-07-23T04:19:44;3.90;;;3.50;;
4837;SDS011;2433;48.768;9.154;2022-07-23T04:22:14;3.40;;;3.10;;
4837;SDS011;2433;48.768;9.154;2022-07-23T04:24:40;3.80;;;3.50;;
4837;SDS011;2433;48.768;9.154;2022-07-23T04:27:07;5.38;;;3.40;;
4837;SDS011;2433;48.768;9.154;2022-07-23T04:29:33;3.87;;;3.47;;
4837;SDS011;2433;48.768;9.154;2022-07-23T04:32:01;6.60;;;3.40;;
4837;SDS011;2433;48.768;9.154;2022-07-23T04:34:27;5.10;;;3.80;;
4837;SDS011;2433;48.768;9.154;2022-07-23T04:36:54;4.00;;;3.20;;
4837;SDS011;2433;48.768;9.154;2022-07-23T04:39:19;5.03;;;3.90;;
4837;SDS011;2433;48.768;9.154;2022-07-23T04:41:45;4.20;;;3.40;;
4837;SDS011;2433;48.768;9.154;2022-07-23T04:44:11;3.67;;;3.30;;
4837;SDS011;2433;48.768;9.154;2022-07-23T04:46:37;4.40;;;4.00;;
4837;SDS011;2433;48.768;9.154;2022-07-23T04:49:03;6.27;;;4.13;;
4837;SDS011;2433;48.768;9.154;2022-07-23T04:51:28;3.60;;;3.30;;
4837;SDS011;2433;48.768;9.154;2022-07-23T04:53:55;7.03;;;5.10;;
4837;SDS011;2433;48.768;9.154;2022-07-23T04:56:20;4.00;;;3.57;;
4837;SDS011;2433;48.768;9.154;2022-07-23T04:58:46;3.83;;;3.37;;
4837;SDS011;2433;48.768;9.154;2022-07-23T05:01:11;3.60;;;3.30;;
4837;SDS011;2433;48.768;9.154;2022-07-23T05:03:37;4.40;;;4.00;;
4837;SDS011;2433;48.768;9.154;2022-07-23T05:06:03;4.10;;;3.70;;
4837;SDS011;2433;48.768;9.154;2022-07-23T05:08:29;4.40;;;3.40;;
4837;SDS011;2433;48.768;9.154;2022-07-23T05:10:57;4.57;;;4.03;;
4837;SDS011;2433;48.768;9.154;2022-07-23T05:13:23;4.63;;;4.23;;
4837;SDS011;2433;48.768;9.154;2022-07-23T05:15:50;4.27;;;3.87;;
4837;SDS011;2433;48.768;9.154;2022-07-23T05:18:16;4.20;;;3.70;;
4837;SDS011;2433;48.768;9.154;2022-07-23T05:20:42;8.33;;;4.07;;
4837;SDS011;2433;48.768;9.154;2022-07-23T05:23:10;3.73;;;3.33;;
4837;SDS011;2433;48.768;9.154;2022-07-23T05:25:36;4.83;;;3.30;;
4837;SDS011;2433;48.768;9.154;2022-07-23T05:28:02;3.73;;;3.43;;
4837;SDS011;2433;48.768;9.154;2022-07-23T05:30:27;4.13;;;3.77;;
4837;SDS011;2433;48.768;9.154;2022-07-23T05:32:58;5.67;;;4.67;;
4837;SDS011;2433;48.768;9.154;2022-07-23T05:35:23;4.90;;;3.60;;
4837;SDS011;2433;48.768;9.154;2022-07-23T05:38:04;3.67;;;3.37;;
4837;SDS011;2433;48.768;9.154;2022-07-23T05:40:30;4.50;;;3.83;;
4837;SDS011;2433;48.768;9.154;2022-07-23T05:42:57;4.93;;;4.00;;
4837;SDS011;2433;48.768;9.154;2022-07-23T05:45:22;4.10;;;3.77;;
4837;SDS011;2433;48.768;9.154;2022-07-23T05:47:49;4.10;;;3.78;;
4837;SDS011;2433;48.768;9.154;2022-07-23T05:50:27;5.37;;;4.17;;
4837;SDS011;2433;48.768;9.154;2022-07-23T05:52:59;4.77;;;4.33;;
4837;SDS011;2433;48.768;9.154;2022-07-23T05:55:48;4.43;;;4.03;;
4837;SDS011;2433;48.768;9.154;2022-07-23T05:58:14;4.43;;;3.70;;
4837;SDS011;2433;48.768;9.154;2022-07-23T06:00:40;5.53;;;3.90;;
4837;SDS011;2433;48.768;9.154;2022-07-23T06:03:05;5.53;;;4.50;;
4837;SDS011;2433;48.768;9.154;2022-07-23T06:05:31;4.43;;;4.03;;
4837;SDS011;2433;48.768;9.154;2022-07-23T06:07:57;5.23;;;4.10;;
4837;SDS011;2433;48.768;9.154;2022-07-23T06:10:23;5.00;;;4.20;;
4837;SDS011;2433;48.768;9.154;2022-07-23T06:12:49;5.17;;;4.67;;
4837;SDS011;2433;48.768;9.154;2022-07-23T06:15:14;4.50;;;3.60;;
4837;SDS011;2433;48.768;9.154;2022-07-23T06:17:40;4.37;;;3.97;;
4837;SDS011;2433;48.768;9.154;2022-07-23T06:20:06;4.20;;;3.80;;
4837;SDS011;2433;48.768;9.154;2022-07-23T06:22:36;5.07;;;4.37;;
4837;SDS011;2433;48.768;9.154;2022-07-23T06:25:02;4.50;;;4.10;;
4837;SDS011;2433;48.768;9.154;2022-07-23T06:27:28;4.43;;;4.03;;
4837;SDS011;2433;48.768;9.154;2022-07-23T06:29:53;4.13;;;3.73;;
4837;SDS011;2433;48.768;9.154;2022-07-23T06:32:19;5.00;;;4.60;;
4837;SDS011;2433;48.768;9.154;2022-07-23T06:34:45;5.33;;;4.03;;
4837;SDS011;2433;48.768;9.154;2022-07-23T06:37:11;4.57;;;4.13;;
4837;SDS011;2433;48.768;9.154;2022-07-23T06:39:36;4.70;;;4.30;;
4837;SDS011;2433;48.768;9.154;2022-07-23T06:42:03;4.50;;;4.10;;
4837;SDS011;2433;48.768;9.154;2022-07-23T06:44:37;5.30;;;4.10;;
4837;SDS011;2433;48.768;9.154;2022-07-23T06:47:03;5.25;;;4.80;;
4837;SDS011;2433;48.768;9.154;2022-07-23T06:49:29;4.90;;;4.50;;
4837;SDS011;2433;48.768;9.154;2022-07-23T06:51:56;5.17;;;4.30;;
4837;SDS011;2433;48.768;9.154;2022-07-23T06:54:22;4.93;;;4.13;;
4837;SDS011;2433;48.768;9.154;2022-07-23T06:56:47;4.80;;;4.33;;
4837;SDS011;2433;48.768;9.154;2022-07-23T06:59:14;4.60;;;4.20;;
4837;SDS011;2433;48.768;9.154;2022-07-23T07:01:41;4.17;;;3.87;;
4837;SDS011;2433;48.768;9.154;2022-07-23T07:04:07;7.17;;;5.00;;
4837;SDS011;2433;48.768;9.154;2022-07-23T07:06:32;5.20;;;4.43;;
4837;SDS011;2433;48.768;9.154;2022-07-23T07:08:58;5.47;;;4.30;;
4837;SDS011;2433;48.768;9.154;2022-07-23T07:11:24;4.60;;;4.20;;
4837;SDS011;2433;48.768;9.154;2022-07-23T07:13:50;4.70;;;4.20;;
4837;SDS011;2433;48.768;9.154;2022-07-23T07:16:16;4.73;;;4.33;;
4837;SDS011;2433;48.768;9.154;2022-07-23T07:18:42;4.13;;;3.43;;
4837;SDS011;2433;48.768;9.154;2022-07-23T07:21:07;4.33;;;3.90;;
4837;SDS011;2433;48.768;9.154;2022-07-23T07:23:33;4.50;;;4.10;;
4837;SDS011;2433;48.768;9.154;2022-07-23T07:25:59;5.90;;;5.30;;
4837;SDS011;2433;48.768;9.154;2022-07-23T07:28:24;5.13;;;4.57;;
4837;SDS011;2433;48.768;9.154;2022-07-23T07:30:50;4.90;;;4.10;;
4837;SDS011;2433;48.768;9.154;2022-07-23T07:33:16;5.23;;;4.73;;
4837;SDS011;2433;48.768;9.154;2022-07-23T07:35:41;5.90;;;4.10;;
4837;SDS011;2433;48.768;9.154;2022-07-23T07:38:07;4.97;;;4.47;;
4837;SDS011;2433;48.768;9.154;2022-07-23T07:40:32;4.73;;;4.33;;
4837;SDS011;2433;48.768;9.154;2022-07-23T07:42:58;5.10;;;4.13;;
4837;SDS011;2433;48.768;9.154;2022-07-23T07:45:25;7.43;;;4.63;;
4837;SDS011;2433;48.768;9.154;2022-07-23T07:47:51;5.60;;;5.00;;
4837;SDS011;2433;48.768;9.154;2022-07-23T07:50:18;5.90;;;4.90;;
4837;SDS011;2433;48.768;9.154;2022-07-23T07:52:44;5.20;;;4.70;;
4837;SDS011;2433;48.768;9.154;2022-07-23T07:55:10;5.70;;;5.10;;
4837;SDS011;2433;48.768;9.154;2022-07-23T07:57:36;5.17;;;4.30;;
4837;SDS011;2433;48.768;9.154;2022-07-23T08:00:03;4.67;;;3.80;;
4837;SDS011;2433;48.768;9.154;2022-07-23T08:05:09;5.53;;;4.13;;
4837;SDS011;2433;48.768;9.154;2022-07-23T08:07:35;5.13;;;4.63;;
4837;SDS011;2433;48.768;9.154;2022-07-23T08:10:00;5.87;;;4.50;;
4837;SDS011;2433;48.768;9.154;2022-07-23T08:12:26;5.07;;;4.50;;
4837;SDS011;2433;48.768;9.154;2022-07-23T08:14:52;5.03;;;4.50;;
4837;SDS011;2433;48.768;9.154;2022-07-23T08:17:18;6.25;;;4.47;;
4837;SDS011;2433;48.768;9.154;2022-07-23T08:19:43;5.20;;;4.07;;
4837;SDS011;2433;48.768;9.154;2022-07-23T08:22:09;5.03;;;4.43;;
4837;SDS011;2433;48.768;9.154;2022-07-23T08:24:34;5.73;;;4.43;;
4837;SDS011;2433;48.768;9.154;2022-07-23T08:27:00;5.10;;;4.60;;
4837;SDS011;2433;48.768;9.154;2022-07-23T08:29:25;5.37;;;4.87;;
4837;SDS011;2433;48.768;9.154;2022-07-23T08:31:51;4.60;;;4.20;;
4837;SDS011;2433;48.768;9.154;2022-07-23T08:34:16;4.27;;;3.80;;
4837;SDS011;2433;48.768;9.154;2022-07-23T08:36:42;4.50;;;4.10;;
4837;SDS011;2433;48.768;9.154;2022-07-23T08:39:08;4.67;;;4.20;;
4837;SDS011;2433;48.768;9.154;2022-07-23T08:41:33;4.30;;;3.90;;
4837;SDS011;2433;48.768;9.154;2022-07-23T08:43:59;6.80;;;5.10;;
4837;SDS011;2433;48.768;9.154;2022-07-23T08:46:26;5.90;;;4.20;;
4837;SDS011;2433;48.768;9.154;2022-07-23T08:48:52;5.00;;;4.57;;
4837;SDS011;2433;48.768;9.154;2022-07-23T08:51:19;4.57;;;3.73;;
4837;SDS011;2433;48.768;9.154;2022-07-23T08:53:45;4.60;;;4.13;;
4837;SDS011;2433;48.768;9.154;2022-07-23T08:56:12;4.70;;;4.17;;
4837;SDS011;2433;48.768;9.154;2022-07-23T08:58:37;4.73;;;4.33;;
4837;SDS011;2433;48.768;9.154;2022-07-23T09:01:03;5.43;;;4.10;;
4837;SDS011;2433;48.768;9.154;2022-07-23T09:03:30;6.10;;;3.90;;
4837;SDS011;2433;48.768;9.154;2022-07-23T09:05:58;4.50;;;4.10;;
4837;SDS011;2433;48.768;9.154;2022-07-23T09:08:25;5.03;;;4.60;;
4837;SDS011;2433;48.768;9.154;2022-07-23T09:11:00;7.68;;;4.43;;
4837;SDS011;2433;48.768;9.154;2022-07-23T09:16:08;4.50;;;4.10;;
4837;SDS011;2433;48.768;9.154;2022-07-23T09:18:37;4.20;;;3.83;;
4837;SDS011;2433;48.768;9.154;2022-07-23T09:21:07;4.30;;;3.87;;
4837;SDS011;2433;48.768;9.154;2022-07-23T09:23:47;4.63;;;4.03;;
4837;SDS011;2433;48.768;9.154;2022-07-23T09:26:25;4.13;;;3.72;;
4837;SDS011;2433;48.768;9.154;2022-07-23T09:31:18;4.63;;;4.00;;
4837;SDS011;2433;48.768;9.154;2022-07-23T09:33:44;4.00;;;3.70;;
4837;SDS011;2433;48.768;9.154;2022-07-23T09:36:10;5.00;;;4.20;;
4837;SDS011;2433;48.768;9.154;2022-07-23T09:38:36;4.70;;;4.30;;
4837;SDS011;2433;48.768;9.154;2022-07-23T09:41:13;5.30;;;4.88;;
4837;SDS011;2433;48.768;9.154;2022-07-23T09:43:39;4.77;;;3.97;;
4837;SDS011;2433;48.768;9.154;2022-07-23T09:48:54;4.40;;;4.10;;
4837;SDS011;2433;48.768;9.154;2022-07-23T09:51:22;4.63;;;4.13;;
4837;SDS011;2433;48.768;9.154;2022-07-23T09:54:00;4.53;;;4.00;;
4837;SDS011;2433;48.768;9.154;2022-07-23T09:56:27;5.10;;;4.60;;
4837;SDS011;2433;48.768;9.154;2022-07-23T09:58:53;4.20;;;3.77;;
4837;SDS011;2433;48.768;9.154;2022-07-23T10:01:32;4.53;;;4.13;;
4837;SDS011;2433;48.768;9.154;2022-07-23T10:03:58;5.07;;;4.57;;
4837;SDS011;2433;48.768;9.154;2022-07-23T10:06:47;5.20;;;4.73;;
4837;SDS011;2433;48.768;9.154;2022-07-23T10:09:33;4.90;;;4.50;;
4837;SDS011;2433;48.768;9.154;2022-07-23T10:12:20;4.70;;;4.10;;
4837;SDS011;2433;48.768;9.154;2022-07-23T10:15:06;4.83;;;4.43;;
4837;SDS011;2433;48.768;9.154;2022-07-23T10:17:33;3.93;;;3.60;;
4837;SDS011;2433;48.768;9.154;2022-07-23T10:19:59;4.40;;;4.00;;
4837;SDS011;2433;48.768;9.154;2022-07-23T10:22:29;4.97;;;4.57;;
4837;SDS011;2433;48.768;9.154;2022-07-23T10:30:25;4.93;;;4.53;;
4837;SDS011;2433;48.768;9.154;2022-07-23T10:33:09;5.00;;;4.50;;
4837;SDS011;2433;48.768;9.154;2022-07-23T10:36:02;4.60;;;4.17;;
4837;SDS011;2433;48.768;9.154;2022-07-23T10:38:36;4.53;;;4.13;;
4837;SDS011;2433;48.768;9.154;2022-07-23T10:41:09;4.40;;;4.00;;
4837;SDS011;2433;48.768;9.154;2022-07-23T10:43:35;4.93;;;4.23;;
4837;SDS011;2433;48.768;9.154;2022-07-23T10:54:56;5.00;;;4.47;;
4837;SDS011;2433;48.768;9.154;2022-07-23T10:57:46;4.50;;;4.10;;
4837;SDS011;2433;48.768;9.154;2022-07-23T11:00:13;6.17;;;4.30;;
4837;SDS011;2433;48.768;9.154;2022-07-23T11:02:42;4.40;;;4.00;;
4837;SDS011;2433;48.768;9.154;2022-07-23T11:05:13;4.45;;;4.05;;
4837;SDS011;2433;48.768;9.154;2022-07-23T11:10:32;5.93;;;4.77;;
4837;SDS011;2433;48.768;9.154;2022-07-23T11:34:47;4.90;;;4.40;;
4837;SDS011;2433;48.768;9.154;2022-07-23T11:40:00;4.90;;;4.00;;
4837;SDS011;2433;48.768;9.154;2022-07-23T11:42:27;5.22;;;4.72;;
4837;SDS011;2433;48.768;9.154;2022-07-23T11:44:52;4.97;;;4.57;;
4837;SDS011;2433;48.768;9.154;2022-07-23T11:47:22;4.27;;;3.97;;
4837;SDS011;2433;48.768;9.154;2022-07-23T11:49:56;6.83;;;4.37;;
4837;SDS011;2433;48.768;9.154;2022-07-23T11:52:23;5.10;;;4.13;;
4837;SDS011;2433;48.768;9.154;2022-07-23T11:55:00;4.73;;;4.30;;
4837;SDS011;2433;48.768;9.154;2022-07-23T11:57:31;4.70;;;4.10;;
4837;SDS011;2433;48.768;9.154;2022-07-23T12:00:01;4.53;;;4.13;;
4837;SDS011;2433;48.768;9.154;2022-07-23T12:02:40;5.10;;;4.60;;
4837;SDS011;2433;48.768;9.154;2022-07-23T12:05:08;5.43;;;4.87;;
4837;SDS011;2433;48.768;9.154;2022-07-23T12:07:37;6.23;;;5.13;;
4837;SDS011;2433;48.768;9.154;2022-07-23T12:10:16;6.50;;;5.20;;
4837;SDS011;2433;48.768;9.154;2022-07-23T12:12:53;4.77;;;4.00;;
4837;SDS011;2433;48.768;9.154;2022-07-23T12:15:23;4.43;;;4.07;;
4837;SDS011;2433;48.768;9.154;2022-07-23T12:17:51;4.63;;;4.23;;
4837;SDS011;2433;48.768;9.154;2022-07-23T12:20:20;5.87;;;4.90;;
4837;SDS011;2433;48.768;9.154;2022-07-23T12:22:49;5.43;;;4.80;;
4837;SDS011;2433;48.768;9.154;2022-07-23T12:25:17;5.33;;;4.83;;
4837;SDS011;2433;48.768;9.154;2022-07-23T12:27:43;5.47;;;4.97;;
4837;SDS011;2433;48.768;9.154;2022-07-23T12:30:19;4.77;;;4.27;;
4837;SDS011;2433;48.768;9.154;2022-07-23T12:32:53;5.63;;;5.17;;
4837;SDS011;2433;48.768;9.154;2022-07-23T12:35:21;4.50;;;3.83;;
4837;SDS011;2433;48.768;9.154;2022-07-23T12:37:49;6.27;;;5.63;;
4837;SDS011;2433;48.768;9.154;2022-07-23T12:43:00;5.30;;;4.80;;
4837;SDS011;2433;48.768;9.154;2022-07-23T12:45:27;5.65;;;4.82;;
4837;SDS011;2433;48.768;9.154;2022-07-23T12:53:22;6.77;;;4.87;;
4837;SDS011;2433;48.768;9.154;2022-07-23T12:55:57;5.70;;;5.20;;
4837;SDS011;2433;48.768;9.154;2022-07-23T12:58:39;5.43;;;4.80;;
4837;SDS011;2433;48.768;9.154;2022-07-23T13:09:04;5.40;;;5.00;;
4837;SDS011;2433;48.768;9.154;2022-07-23T13:11:30;7.33;;;5.17;;
4837;SDS011;2433;48.768;9.154;2022-07-23T13:13:56;4.80;;;4.33;;
4837;SDS011;2433;48.768;9.154;2022-07-23T13:16:22;5.38;;;4.88;;
4837;SDS011;2433;48.768;9.154;2022-07-23T13:18:47;5.68;;;4.60;;
4837;SDS011;2433;48.768;9.154;2022-07-23T13:21:13;4.80;;;4.40;;
4837;SDS011;2433;48.768;9.154;2022-07-23T13:23:38;6.55;;;5.28;;
4837;SDS011;2433;48.768;9.154;2022-07-23T13:26:04;4.73;;;4.33;;
4837;SDS011;2433;48.768;9.154;2022-07-23T13:28:30;4.97;;;4.47;;
4837;SDS011;2433;48.768;9.154;2022-07-23T13:30:55;5.53;;;4.73;;
4837;SDS011;2433;48.768;9.154;2022-07-23T13:33:22;5.00;;;4.50;;
4837;SDS011;2433;48.768;9.154;2022-07-23T13:35:49;5.18;;;4.63;;
4837;SDS011;2433;48.768;9.154;2022-07-23T13:38:16;4.50;;;3.73;;
4837;SDS011;2433;48.768;9.154;2022-07-23T13:40:43;6.00;;;5.10;;
4837;SDS011;2433;48.768;9.154;2022-07-23T13:43:10;5.10;;;4.43;;
4837;SDS011;2433;48.768;9.154;2022-07-23T13:45:37;4.95;;;4.45;;
4837;SDS011;2433;48.768;9.154;2022-07-23T13:48:04;6.17;;;5.20;;
4837;SDS011;2433;48.768;9.154;2022-07-23T13:50:31;5.60;;;5.07;;
4837;SDS011;2433;48.768;9.154;2022-07-23T13:52:59;5.18;;;4.63;;
4837;SDS011;2433;48.768;9.154;2022-07-23T13:55:26;5.10;;;4.60;;
4837;SDS011;2433;48.768;9.154;2022-07-23T13:57:52;5.17;;;4.60;;
4837;SDS011;2433;48.768;9.154;2022-07-23T14:00:17;5.37;;;4.87;;
4837;SDS011;2433;48.768;9.154;2022-07-23T14:02:43;5.53;;;5.07;;
4837;SDS011;2433;48.768;9.154;2022-07-23T14:05:09;5.43;;;4.93;;
4837;SDS011;2433;48.768;9.154;2022-07-23T14:07:35;5.72;;;5.03;;
4837;SDS011;2433;48.768;9.154;2022-07-23T14:10:05;5.37;;;4.87;;
4837;SDS011;2433;48.768;9.154;2022-07-23T14:12:32;5.90;;;5.23;;
4837;SDS011;2433;48.768;9.154;2022-07-23T14:14:57;6.03;;;5.53;;
4837;SDS011;2433;48.768;9.154;2022-07-23T14:17:23;5.30;;;4.90;;
4837;SDS011;2433;48.768;9.154;2022-07-23T14:19:49;5.77;;;5.03;;
4837;SDS011;2433;48.768;9.154;2022-07-23T14:22:15;6.10;;;5.50;;
4837;SDS011;2433;48.768;9.154;2022-07-23T14:24:41;5.55;;;5.05;;
4837;SDS011;2433;48.768;9.154;2022-07-23T14:27:07;4.70;;;4.30;;
4837;SDS011;2433;48.768;9.154;2022-07-23T14:29:33;4.83;;;4.43;;
4837;SDS011;2433;48.768;9.154;2022-07-23T14:31:58;6.40;;;5.00;;
4837;SDS011;2433;48.768;9.154;2022-07-23T14:34:25;5.80;;;5.30;;
4837;SDS011;2433;48.768;9.154;2022-07-23T14:36:51;11.20;;;4.90;;
4837;SDS011;2433;48.768;9.154;2022-07-23T14:39:16;5.80;;;5.30;;
4837;SDS011;2433;48.768;9.154;2022-07-23T14:41:42;5.30;;;4.77;;
4837;SDS011;2433;48.768;9.154;2022-07-23T14:44:08;5.50;;;4.70;;
4837;SDS011;2433;48.768;9.154;2022-07-23T14:46:34;5.75;;;5.18;;
4837;SDS011;2433;48.768;9.154;2022-07-23T14:48:59;5.50;;;5.10;;
4837;SDS011;2433;48.768;9.154;2022-07-23T14:51:25;9.87;;;5.93;;
4837;SDS011;2433;48.768;9.154;2022-07-23T14:53:50;5.73;;;5.00;;
4837;SDS011;2433;48.768;9.154;2022-07-23T14:56:16;4.93;;;4.43;;
4837;SDS011;2433;48.768;9.154;2022-07-23T14:58:41;5.50;;;5.00;;
4837;SDS011;2433;48.768;9.154;2022-07-23T15:01:07;6.30;;;4.90;;
4837;SDS011;2433;48.768;9.154;2022-07-23T15:03:33;5.50;;;4.73;;
4837;SDS011;2433;48.768;9.154;2022-07-23T15:05:59;7.27;;;5.30;;
4837;SDS011;2433;48.768;9.154;2022-07-23T15:08:24;5.70;;;5.20;;
4837;SDS011;2433;48.768;9.154;2022-07-23T15:10:50;5.63;;;5.23;;
4837;SDS011;2433;48.768;9.154;2022-07-23T15:13:16;6.10;;;5.60;;
4837;SDS011;2433;48.768;9.154;2022-07-23T15:15:42;5.13;;;4.60;;
4837;SDS011;2433;48.768;9.154;2022-07-23T15:18:08;5.87;;;5.40;;
4837;SDS011;2433;48.768;9.154;2022-07-23T15:20:33;6.63;;;5.90;;
4837;SDS011;2433;48.768;9.154;2022-07-23T15:23:00;5.77;;;5.07;;
4837;SDS011;2433;48.768;9.154;2022-07-23T15:25:25;4.90;;;4.50;;
4837;SDS011;2433;48.768;9.154;2022-07-23T15:27:51;5.90;;;5.20;;
4837;SDS011;2433;48.768;9.154;2022-07-23T15:30:17;6.03;;;5.07;;
4837;SDS011;2433;48.768;9.154;2022-07-23T15:32:42;6.00;;;5.50;;
4837;SDS011;2433;48.768;9.154;2022-07-23T15:35:08;4.90;;;4.60;;
4837;SDS011;2433;48.768;9.154;2022-07-23T15:37:34;5.83;;;5.33;;
4837;SDS011;2433;48.768;9.154;2022-07-23T15:40:00;5.83;;;5.20;;
4837;SDS011;2433;48.768;9.154;2022-07-23T15:42:26;6.17;;;5.57;;
4837;SDS011;2433;48.768;9.154;2022-07-23T15:44:51;4.93;;;4.50;;
4837;SDS011;2433;48.768;9.154;2022-07-23T15:47:17;5.87;;;5.37;;
4837;SDS011;2433;48.768;9.154;2022-07-23T15:49:44;5.32;;;4.82;;
4837;SDS011;2433;48.768;9.154;2022-07-23T15:52:10;5.90;;;5.40;;
4837;SDS011;2433;48.768;9.154;2022-07-23T15:54:36;6.10;;;5.20;;
4837;SDS011;2433;48.768;9.154;2022-07-23T15:57:03;6.10;;;5.50;;
4837;SDS011;2433;48.768;9.154;2022-07-23T15:59:29;6.10;;;5.50;;
4837;SDS011;2433;48.768;9.154;2022-07-23T16:01:54;6.73;;;6.13;;
4837;SDS011;2433;48.768;9.154;2022-07-23T16:04:20;5.77;;;5.27;;
4837;SDS011;2433;48.768;9.154;2022-07-23T16:06:45;5.30;;;4.90;;
4837;SDS011;2433;48.768;9.154;2022-07-23T16:09:11;5.47;;;4.97;;
4837;SDS011;2433;48.768;9.154;2022-07-23T16:11:37;7.63;;;5.60;;
4837;SDS011;2433;48.768;9.154;2022-07-23T16:14:02;6.17;;;5.67;;
4837;SDS011;2433;48.768;9.154;2022-07-23T16:16:29;6.40;;;5.80;;
4837;SDS011;2433;48.768;9.154;2022-07-23T16:18:54;5.25;;;4.85;;
4837;SDS011;2433;48.768;9.154;2022-07-23T16:21:20;5.30;;;4.80;;
4837;SDS011;2433;48.768;9.154;2022-07-23T16:23:46;5.70;;;5.30;;